createdAt,value
2017-07-22T00:00:17.000Z,92.67
2017-07-22T00:01:17.098Z,92.72
2017-07-22T00:02:16.995Z,92.81
2017-07-22T00:03:16.995Z,92.72
2017-07-22T00:04:16.994Z,93.01
2017-07-22T00:05:16.687Z,93.44
2017-07-22T00:06:16.993Z,93.39
2017-07-22T00:07:16.992Z,92.96
2017-07-22T00:08:16.992Z,93.1
2017-07-22T00:09:16.987Z,92.91
2017-07-22T00:10:17.140Z,93.49
2017-07-22T00:11:16.985Z,93.05
2017-07-22T00:12:16.985Z,93.05
2017-07-22T00:13:16.984Z,93.01
2017-07-22T00:14:16.982Z,93.58
2017-07-22T00:15:16.982Z,93.58
2017-07-22T00:16:16.977Z,93.49
2017-07-22T00:17:16.982Z,93.29
2017-07-22T00:18:16.976Z,93.34
2017-07-22T00:19:16.975Z,93.68
2017-07-22T00:20:16.977Z,93.39
2017-07-22T00:21:16.980Z,93.68
2017-07-22T00:22:17.069Z,93.29
2017-07-22T00:23:16.968Z,94.06
2017-07-22T00:24:16.971Z,93.96
2017-07-22T00:25:16.968Z,94.26
2017-07-22T00:26:16.970Z,94.16
2017-07-22T00:27:16.963Z,94.35
2017-07-22T00:28:16.975Z,94.35
2017-07-22T00:29:16.976Z,94.06
2017-07-22T00:30:16.966Z,94.26
2017-07-22T00:31:16.958Z,93.96
2017-07-22T00:32:16.656Z,93.96
2017-07-22T00:33:16.958Z,94.16
2017-07-22T00:34:16.980Z,94.06
2017-07-22T00:35:16.952Z,94.26
2017-07-22T00:36:16.952Z,93.96
2017-07-22T00:37:16.950Z,94.06
2017-07-22T00:38:16.948Z,94.16
2017-07-22T00:39:16.950Z,93.87
2017-07-22T00:40:17.100Z,93.96
2017-07-22T00:41:16.950Z,94.06
2017-07-22T00:42:16.640Z,93.87
2017-07-22T00:43:16.944Z,94.26
2017-07-22T00:44:16.960Z,94.16
2017-07-22T00:45:16.935Z,94.45
2017-07-22T00:46:16.937Z,94.16
2017-07-22T00:47:16.939Z,94.06
2017-07-22T00:48:16.937Z,94.16
2017-07-22T00:49:16.935Z,93.87
2017-07-22T00:50:16.933Z,93.96
2017-07-22T00:51:16.930Z,94.45
2017-07-22T00:52:16.932Z,94.06
2017-07-22T00:53:16.929Z,94.35
2017-07-22T00:54:16.928Z,94.26
2017-07-22T00:55:16.623Z,94.26
2017-07-22T00:56:16.926Z,94.06
2017-07-22T00:57:16.924Z,94.35
2017-07-22T00:58:17.022Z,94.35
2017-07-22T00:59:16.919Z,94.35
2017-07-22T01:00:16.920Z,94.54
2017-07-22T01:01:16.918Z,94.35
2017-07-22T01:02:17.069Z,93.77
2017-07-22T01:03:16.920Z,93.49
2017-07-22T01:04:16.916Z,93.29
2017-07-22T01:05:16.910Z,93.29
2017-07-22T01:06:16.912Z,93.58
2017-07-22T01:07:17.010Z,93.39
2017-07-22T01:08:16.907Z,93.49
2017-07-22T01:09:16.932Z,93.19
2017-07-22T01:10:16.908Z,93.29
2017-07-22T01:11:17.004Z,93.1
2017-07-22T01:12:16.903Z,93.34
2017-07-22T01:13:16.901Z,93.1
2017-07-22T01:14:16.897Z,93.29
2017-07-22T01:15:16.897Z,93.25
2017-07-22T01:16:16.893Z,93.34
2017-07-22T01:17:16.895Z,93.05
2017-07-22T01:18:16.890Z,93.54
2017-07-22T01:19:16.891Z,93.25
2017-07-22T01:20:16.888Z,94.06
2017-07-22T01:21:16.686Z,94.01
2017-07-22T01:22:16.988Z,93.77
2017-07-22T01:23:16.887Z,93.96
2017-07-22T01:24:16.898Z,94.06
2017-07-22T01:25:16.885Z,94.4
2017-07-22T01:26:16.886Z,94.4
2017-07-22T01:27:16.881Z,93.96
2017-07-22T01:28:16.879Z,93.87
2017-07-22T01:29:16.877Z,93.49
2017-07-22T01:30:16.878Z,93.01
2017-07-22T01:31:16.572Z,93.29
2017-07-22T01:32:16.874Z,93.39
2017-07-22T01:33:16.570Z,93.49
2017-07-22T01:34:16.873Z,93.49
2017-07-22T01:35:16.869Z,93.29
2017-07-22T01:36:16.868Z,93.96
2017-07-22T01:37:16.869Z,93.29
2017-07-22T01:38:16.866Z,93.58
2017-07-22T01:39:16.709Z,93.58
2017-07-22T01:40:16.860Z,93.39
2017-07-22T01:41:16.869Z,93.58
2017-07-22T01:42:16.861Z,94.06
2017-07-22T01:43:16.859Z,94.26
2017-07-22T01:44:16.857Z,93.77
2017-07-22T01:45:16.853Z,94.16
2017-07-22T01:46:16.853Z,93.96
2017-07-22T01:47:16.852Z,94.26
2017-07-22T01:48:16.851Z,93.49
2017-07-22T01:49:16.850Z,93.1
2017-07-22T01:50:16.849Z,93.87
2017-07-22T01:51:16.846Z,93.49
2017-07-22T01:52:16.844Z,93.49
2017-07-22T01:53:16.847Z,93.49
2017-07-22T01:54:16.842Z,93.58
2017-07-22T01:55:16.842Z,93.77
2017-07-22T01:56:16.988Z,93.29
2017-07-22T01:57:16.835Z,93.77
2017-07-22T01:58:16.837Z,93.1
2017-07-22T01:59:16.836Z,93.29
2017-07-22T02:00:16.834Z,93.1
2017-07-22T02:01:16.837Z,93.29
2017-07-22T02:02:16.830Z,93.68
2017-07-22T02:03:16.829Z,93.58
2017-07-22T02:04:16.825Z,93.39
2017-07-22T02:05:16.827Z,92.81
2017-07-22T02:06:16.825Z,93.01
2017-07-22T02:07:16.821Z,92.91
2017-07-22T02:08:16.824Z,93.1
2017-07-22T02:09:16.516Z,92.81
2017-07-22T02:10:16.917Z,92.72
2017-07-22T02:11:16.817Z,92.52
2017-07-22T02:12:16.816Z,92.67
2017-07-22T02:13:16.812Z,92.86
2017-07-22T02:14:16.911Z,92.67
2017-07-22T02:15:16.817Z,92.67
2017-07-22T02:16:16.807Z,92.86
2017-07-22T02:17:16.807Z,92.96
2017-07-22T02:18:16.808Z,92.67
2017-07-22T02:19:16.807Z,92.67
2017-07-22T02:20:16.802Z,92.96
2017-07-22T02:21:16.799Z,93.34
2017-07-22T02:22:16.802Z,93.44
2017-07-22T02:23:16.800Z,93.49
2017-07-22T02:24:16.796Z,93.05
2017-07-22T02:25:16.797Z,93.39
2017-07-22T02:26:16.795Z,93.39
2017-07-22T02:27:16.797Z,93.39
2017-07-22T02:28:16.789Z,93.58
2017-07-22T02:29:16.789Z,92.67
2017-07-22T02:30:16.787Z,92.72
2017-07-22T02:31:16.481Z,92.91
2017-07-22T02:32:16.787Z,92.91
2017-07-22T02:33:16.781Z,92.91
2017-07-22T02:34:16.784Z,92.62
2017-07-22T02:35:16.781Z,92.72
2017-07-22T02:36:16.881Z,92.91
2017-07-22T02:37:16.474Z,92.77
2017-07-22T02:38:16.781Z,93.05
2017-07-22T02:39:16.794Z,92.86
2017-07-22T02:40:16.773Z,92.67
2017-07-22T02:41:16.774Z,92.86
2017-07-22T02:42:16.770Z,92.86
2017-07-22T02:43:16.769Z,92.57
2017-07-22T02:44:16.462Z,92.86
2017-07-22T02:45:16.460Z,92.86
2017-07-22T02:46:16.462Z,93.01
2017-07-22T02:47:16.558Z,93.01
2017-07-22T02:48:16.456Z,93.01
2017-07-22T02:49:16.758Z,92.91
2017-07-22T02:50:16.456Z,92.72
2017-07-22T02:51:16.449Z,92.62
2017-07-22T02:52:16.549Z,92.48
2017-07-22T02:53:16.452Z,92.43
2017-07-22T02:54:16.444Z,92.48
2017-07-22T02:55:16.445Z,92.19
2017-07-22T02:56:16.442Z,92.29
2017-07-22T02:57:16.542Z,92.29
2017-07-22T02:58:16.438Z,92.19
2017-07-22T02:59:16.438Z,92.19
2017-07-22T03:00:16.438Z,92.38
2017-07-22T03:01:16.842Z,92.77
2017-07-22T03:02:16.430Z,92.86
2017-07-22T03:03:16.741Z,92.81
2017-07-22T03:04:16.429Z,92.67
2017-07-22T03:05:16.734Z,92.86
2017-07-22T03:06:16.733Z,92.67
2017-07-22T03:07:16.736Z,92.81
2017-07-22T03:08:16.727Z,93.1
2017-07-22T03:09:16.728Z,92.52
2017-07-22T03:10:16.828Z,92.24
2017-07-22T03:11:16.568Z,92.38
2017-07-22T03:12:16.725Z,92.14
2017-07-22T03:13:16.719Z,92.24
2017-07-22T03:14:16.722Z,91.95
2017-07-22T03:15:16.715Z,92.24
2017-07-22T03:16:16.722Z,92.19
2017-07-22T03:17:16.408Z,92.38
2017-07-22T03:18:16.722Z,92.38
2017-07-22T03:19:16.713Z,92.19
2017-07-22T03:20:16.710Z,91.9
2017-07-22T03:21:16.710Z,92.1
2017-07-22T03:22:16.706Z,92.19
2017-07-22T03:23:16.707Z,92.29
2017-07-22T03:24:16.703Z,92.24
2017-07-22T03:25:16.704Z,92.19
2017-07-22T03:26:16.802Z,92
2017-07-22T03:27:16.696Z,92.19
2017-07-22T03:28:16.393Z,92.29
2017-07-22T03:29:16.697Z,92.48
2017-07-22T03:30:16.392Z,92.29
2017-07-22T03:31:16.697Z,92.48
2017-07-22T03:32:16.385Z,92.29
2017-07-22T03:33:16.689Z,92.19
2017-07-22T03:34:16.687Z,92.48
2017-07-22T03:35:16.686Z,92.19
2017-07-22T03:36:16.786Z,92.48
2017-07-22T03:37:16.685Z,92.29
2017-07-22T03:38:16.678Z,91.9
2017-07-22T03:39:16.681Z,92.29
2017-07-22T03:40:16.697Z,92.48
2017-07-22T03:41:16.676Z,92.48
2017-07-22T03:42:16.674Z,92.19
2017-07-22T03:43:16.672Z,92.19
2017-07-22T03:44:16.682Z,92
2017-07-22T03:45:16.675Z,92.19
2017-07-22T03:46:16.817Z,92.29
2017-07-22T03:47:16.663Z,92.38
2017-07-22T03:48:16.667Z,92.1
2017-07-22T03:49:16.663Z,92.48
2017-07-22T03:50:16.663Z,92.48
2017-07-22T03:51:16.657Z,92.1
2017-07-22T03:52:16.658Z,92.19
2017-07-22T03:53:16.657Z,92.1
2017-07-22T03:54:16.759Z,92.1
2017-07-22T03:55:16.652Z,92.19
2017-07-22T03:56:16.652Z,92.19
2017-07-22T03:57:16.649Z,92.29
2017-07-22T03:58:16.666Z,92.19
2017-07-22T03:59:16.744Z,91.9
2017-07-22T04:00:16.644Z,92.19
2017-07-22T04:01:16.640Z,92
2017-07-22T04:02:16.641Z,92.38
2017-07-22T04:03:16.639Z,92.19
2017-07-22T04:04:16.639Z,92.19
2017-07-22T04:05:16.634Z,92.29
2017-07-22T04:06:16.632Z,92.38
2017-07-22T04:07:16.630Z,92.38
2017-07-22T04:08:16.636Z,92.19
2017-07-22T04:09:16.626Z,92.19
2017-07-22T04:10:16.321Z,92.29
2017-07-22T04:11:16.625Z,92.19
2017-07-22T04:12:16.623Z,92.19
2017-07-22T04:13:16.622Z,91.52
2017-07-22T04:14:16.628Z,92.38
2017-07-22T04:15:16.314Z,92.19
2017-07-22T04:16:16.617Z,91.81
2017-07-22T04:17:16.614Z,91.52
2017-07-22T04:18:16.612Z,91.33
2017-07-22T04:19:16.611Z,91.81
2017-07-22T04:20:16.611Z,91.61
2017-07-22T04:21:16.608Z,91.71
2017-07-22T04:22:16.608Z,91.61
2017-07-22T04:23:16.606Z,91.52
2017-07-22T04:24:16.606Z,91.33
2017-07-22T04:25:16.598Z,91.42
2017-07-22T04:26:16.598Z,91.52
2017-07-22T04:27:16.597Z,91.42
2017-07-22T04:28:16.291Z,91.61
2017-07-22T04:29:16.594Z,91.23
2017-07-22T04:30:16.591Z,91.71
2017-07-22T04:31:16.592Z,91.81
2017-07-22T04:32:16.588Z,91.81
2017-07-22T04:33:16.585Z,91.61
2017-07-22T04:34:16.787Z,91.61
2017-07-22T04:35:16.687Z,91.81
2017-07-22T04:36:16.588Z,91.81
2017-07-22T04:37:16.584Z,91.71
2017-07-22T04:38:16.579Z,91.52
2017-07-22T04:39:16.729Z,91.52
2017-07-22T04:40:16.576Z,91.61
2017-07-22T04:41:16.573Z,91.52
2017-07-22T04:42:16.577Z,91.61
2017-07-22T04:43:16.570Z,91.23
2017-07-22T04:44:16.264Z,91.42
2017-07-22T04:45:16.668Z,91.61
2017-07-22T04:46:16.566Z,91.47
2017-07-22T04:47:16.562Z,91.71
2017-07-22T04:48:16.563Z,91.66
2017-07-22T04:49:16.710Z,91.56
2017-07-22T04:50:16.657Z,91.52
2017-07-22T04:51:16.560Z,91.56
2017-07-22T04:52:16.556Z,91.37
2017-07-22T04:53:16.654Z,91.47
2017-07-22T04:54:16.556Z,91.75
2017-07-22T04:55:16.548Z,91.56
2017-07-22T04:56:16.549Z,91.66
2017-07-22T04:57:16.553Z,91.95
2017-07-22T04:58:16.549Z,91.95
2017-07-22T04:59:16.544Z,91.47
2017-07-22T05:00:16.541Z,91.71
2017-07-22T05:01:16.541Z,91.8
2017-07-22T05:02:16.543Z,91.8
2017-07-22T05:03:16.540Z,91.42
2017-07-22T05:04:16.232Z,91.03
2017-07-22T05:05:16.534Z,90.94
2017-07-22T05:06:16.533Z,91.03
2017-07-22T05:07:16.532Z,91.03
2017-07-22T05:08:16.528Z,91.13
2017-07-22T05:09:16.528Z,90.79
2017-07-22T05:10:16.525Z,91.17
2017-07-22T05:11:16.528Z,90.4
2017-07-22T05:12:16.522Z,88.9
2017-07-22T05:13:16.524Z,87.98
2017-07-22T05:14:16.522Z,86.91
2017-07-22T05:15:16.520Z,85.99
2017-07-22T05:16:16.515Z,84.64
2017-07-22T05:17:16.513Z,83.33
2017-07-22T05:18:16.516Z,81.96
2017-07-22T05:19:16.510Z,79.87
2017-07-22T05:20:16.511Z,78.17
2017-07-22T05:21:16.612Z,77.24
2017-07-22T05:22:16.512Z,75.34
2017-07-22T05:23:16.504Z,74.41
2017-07-22T05:24:16.608Z,73.35
2017-07-22T05:25:16.507Z,72.61
2017-07-22T05:26:16.624Z,71.83
2017-07-22T05:27:16.606Z,70.61
2017-07-22T05:28:16.505Z,69.18
2017-07-22T05:29:16.509Z,68.73
2017-07-22T05:30:16.505Z,67.66
2017-07-22T05:31:16.197Z,67.31
2017-07-22T05:32:16.200Z,66.08
2017-07-22T05:33:16.503Z,65.5
2017-07-22T05:34:16.509Z,64.75
2017-07-22T05:35:16.509Z,63.87
2017-07-22T05:36:16.605Z,63.42
2017-07-22T05:37:16.503Z,62.45
2017-07-22T05:38:16.504Z,61.7
2017-07-22T05:39:16.502Z,61.28
2017-07-22T05:40:16.505Z,60.82
2017-07-22T05:41:16.506Z,60.34
2017-07-22T05:42:16.601Z,59.78
2017-07-22T05:43:16.199Z,59.1
2017-07-22T05:44:16.505Z,58.54
2017-07-22T05:45:16.504Z,57.67
2017-07-22T05:46:16.200Z,57.11
2017-07-22T05:47:16.202Z,56.43
2017-07-22T05:48:16.209Z,55.58
2017-07-22T05:49:16.507Z,55.09
2017-07-22T05:50:16.508Z,54.5
2017-07-22T05:51:16.510Z,53.83
2017-07-22T05:52:16.512Z,53.63
2017-07-22T05:53:16.515Z,52.87
2017-07-22T05:54:16.514Z,53.07
2017-07-22T05:55:16.517Z,52.19
2017-07-22T05:56:16.516Z,51.9
2017-07-22T05:57:16.615Z,51.24
2017-07-22T05:58:16.518Z,51.14
2017-07-22T05:59:16.530Z,50.59
2017-07-22T06:00:16.531Z,49.61
2017-07-22T06:01:16.531Z,49.51
2017-07-22T06:02:16.533Z,48.55
2017-07-22T06:03:16.533Z,48.65
2017-07-22T06:04:16.533Z,47.77
2017-07-22T06:05:16.642Z,47.09
2017-07-22T06:06:16.541Z,47.02
2017-07-22T06:07:16.545Z,45.65
2017-07-22T06:08:16.545Z,45.26
2017-07-22T06:09:16.694Z,45.16
2017-07-22T06:10:16.551Z,44.69
2017-07-22T06:11:16.246Z,44.49
2017-07-22T06:12:16.556Z,43.73
2017-07-22T06:13:16.558Z,42.76
2017-07-22T06:14:16.561Z,42.36
2017-07-22T06:15:16.563Z,41.97
2017-07-22T06:16:16.567Z,41.68
2017-07-22T06:17:16.569Z,40.7
2017-07-22T06:18:16.572Z,40.33
2017-07-22T06:19:16.572Z,40.33
2017-07-22T06:20:16.581Z,39.96
2017-07-22T06:21:16.581Z,39.86
2017-07-22T06:22:16.277Z,39.37
2017-07-22T06:23:16.584Z,38.9
2017-07-22T06:24:16.591Z,38.7
2017-07-22T06:25:16.591Z,38.72
2017-07-22T06:26:16.596Z,38.72
2017-07-22T06:27:16.599Z,38.06
2017-07-22T06:28:16.604Z,37.76
2017-07-22T06:29:16.606Z,37.17
2017-07-22T06:30:16.613Z,36.99
2017-07-22T06:31:16.610Z,36.4
2017-07-22T06:32:16.617Z,35.91
2017-07-22T06:33:16.720Z,35.62
2017-07-22T06:34:16.625Z,35.13
2017-07-22T06:35:16.628Z,34.95
2017-07-22T06:36:16.633Z,34.64
2017-07-22T06:37:16.515Z,34.54
2017-07-22T06:38:16.913Z,34.74
2017-07-22T06:39:16.846Z,34.54
2017-07-22T06:40:16.744Z,34.36
2017-07-22T06:41:16.945Z,34.36
2017-07-22T06:42:16.790Z,33.89
2017-07-22T06:43:16.450Z,33.59
2017-07-22T06:44:16.663Z,33.61
2017-07-22T06:45:16.665Z,33.12
2017-07-22T06:46:16.673Z,33.51
2017-07-22T06:47:16.675Z,32.92
2017-07-22T06:48:16.373Z,32.74
2017-07-22T06:49:16.379Z,32.34
2017-07-22T06:50:16.689Z,32.07
2017-07-22T06:51:16.690Z,31.57
2017-07-22T06:52:16.695Z,31.2
2017-07-22T06:53:16.699Z,30.9
2017-07-22T06:54:16.718Z,30.8
2017-07-22T06:55:16.710Z,30.98
2017-07-22T06:56:16.713Z,31.07
2017-07-22T06:57:16.719Z,31.07
2017-07-22T06:58:16.721Z,31.16
2017-07-22T06:59:16.729Z,30.77
2017-07-22T07:00:16.731Z,30.87
2017-07-22T07:01:16.736Z,30.77
2017-07-22T07:02:16.740Z,30.87
2017-07-22T07:03:16.746Z,30.76
2017-07-22T07:04:16.846Z,30.97
2017-07-22T07:05:16.755Z,30.59
2017-07-22T07:06:16.755Z,30.41
2017-07-22T07:07:16.764Z,30.13
2017-07-22T07:08:16.768Z,29.74
2017-07-22T07:09:16.772Z,29.65
2017-07-22T07:10:16.471Z,29.65
2017-07-22T07:11:16.882Z,29.46
2017-07-22T07:12:16.783Z,29.07
2017-07-22T07:13:16.988Z,28.78
2017-07-22T07:14:16.791Z,28.68
2017-07-22T07:15:16.491Z,28.88
2017-07-22T07:16:16.802Z,28.48
2017-07-22T07:17:16.810Z,28.66
2017-07-22T07:18:16.811Z,28.95
2017-07-22T07:19:16.815Z,28.93
2017-07-22T07:20:16.816Z,29.03
2017-07-22T07:21:16.819Z,29.21
2017-07-22T07:22:16.823Z,28.54
2017-07-22T07:23:16.827Z,28.26
2017-07-22T07:24:16.829Z,28.66
2017-07-22T07:25:16.936Z,28.37
2017-07-22T07:26:16.843Z,28.38
2017-07-22T07:27:16.841Z,28.09
2017-07-22T07:28:16.845Z,27.81
2017-07-22T07:29:16.852Z,28.1
2017-07-22T07:30:16.854Z,27.41
2017-07-22T07:31:16.855Z,27.23
2017-07-22T07:32:16.861Z,27.14
2017-07-22T07:33:16.866Z,26.94
2017-07-22T07:34:16.870Z,26.94
2017-07-22T07:35:16.559Z,26.46
2017-07-22T07:36:16.870Z,26.17
2017-07-22T07:37:16.874Z,26.55
2017-07-22T07:38:16.875Z,26.83
2017-07-22T07:39:16.883Z,26.83
2017-07-22T07:40:16.893Z,27.31
2017-07-22T07:41:16.889Z,28.16
2017-07-22T07:42:16.888Z,28.74
2017-07-22T07:43:16.998Z,29.02
2017-07-22T07:44:16.899Z,28.74
2017-07-22T07:45:16.899Z,28.65
2017-07-22T07:46:17.001Z,28.27
2017-07-22T07:47:16.907Z,28.08
2017-07-22T07:48:16.906Z,27.7
2017-07-22T07:49:16.911Z,27.23
2017-07-22T07:50:16.911Z,26.84
2017-07-22T07:51:16.915Z,26.36
2017-07-22T07:52:16.917Z,26.17
2017-07-22T07:53:16.919Z,25.68
2017-07-22T07:54:16.919Z,25.39
2017-07-22T07:55:16.633Z,25.19
2017-07-22T07:56:16.627Z,25.09
2017-07-22T07:57:16.928Z,24.81
2017-07-22T07:58:16.932Z,24.71
2017-07-22T07:59:16.936Z,24.81
2017-07-22T08:00:16.941Z,24.41
2017-07-22T08:01:16.938Z,24.11
2017-07-22T08:02:16.944Z,24.32
2017-07-22T08:03:16.950Z,24.43
2017-07-22T08:04:16.952Z,24.32
2017-07-22T08:05:16.641Z,24.32
2017-07-22T08:06:16.978Z,24.22
2017-07-22T08:07:16.956Z,24.43
2017-07-22T08:08:16.959Z,24.43
2017-07-22T08:09:16.961Z,24.41
2017-07-22T08:10:16.655Z,24.41
2017-07-22T08:11:16.964Z,24.41
2017-07-22T08:12:16.966Z,24.32
2017-07-22T08:13:16.966Z,23.92
2017-07-22T08:14:16.970Z,23.93
2017-07-22T08:15:16.968Z,23.83
2017-07-22T08:16:16.668Z,23.83
2017-07-22T08:17:16.977Z,23.83
2017-07-22T08:18:16.976Z,23.74
2017-07-22T08:19:16.977Z,23.73
2017-07-22T08:20:16.981Z,23.54
2017-07-22T08:21:16.980Z,23.63
2017-07-22T08:22:16.980Z,23.54
2017-07-22T08:23:16.982Z,23.55
2017-07-22T08:24:16.992Z,22.95
2017-07-22T08:25:16.985Z,22.95
2017-07-22T08:26:16.990Z,22.75
2017-07-22T08:27:16.989Z,23.06
2017-07-22T08:28:16.994Z,22.67
2017-07-22T08:29:16.994Z,22.56
2017-07-22T08:30:16.700Z,22.56
2017-07-22T08:31:16.994Z,22.47
2017-07-22T08:32:17.000Z,22.67
2017-07-22T08:33:17.001Z,22.27
2017-07-22T08:34:17.000Z,22.08
2017-07-22T08:35:17.001Z,22.28
2017-07-22T08:36:17.002Z,22.37
2017-07-22T08:37:17.006Z,22.37
2017-07-22T08:38:17.003Z,22.47
2017-07-22T08:39:17.006Z,22.07
2017-07-22T08:40:17.009Z,22.07
2017-07-22T08:41:17.112Z,22.37
2017-07-22T08:42:17.011Z,22.17
2017-07-22T08:43:17.014Z,22.36
2017-07-22T08:44:17.016Z,22.66
2017-07-22T08:45:17.013Z,22.56
2017-07-22T08:46:17.016Z,22.45
2017-07-22T08:47:17.016Z,22.45
2017-07-22T08:48:16.717Z,22.45
2017-07-22T08:49:17.015Z,23.33
2017-07-22T08:50:17.019Z,24.3
2017-07-22T08:51:17.019Z,25.26
2017-07-22T08:52:17.018Z,26.41
2017-07-22T08:53:17.018Z,27.47
2017-07-22T08:54:17.018Z,28.22
2017-07-22T08:55:17.020Z,29.35
2017-07-22T08:56:17.021Z,30.6
2017-07-22T08:57:17.025Z,31.07
2017-07-22T08:58:16.815Z,31.54
2017-07-22T08:59:17.024Z,32.2
2017-07-22T09:00:17.029Z,33.26
2017-07-22T09:01:16.717Z,33.25
2017-07-22T09:02:17.028Z,34.41
2017-07-22T09:03:17.027Z,34.29
2017-07-22T09:04:17.028Z,35.16
2017-07-22T09:05:17.027Z,35.74
2017-07-22T09:06:17.027Z,36.04
2017-07-22T09:07:17.032Z,36.51
2017-07-22T09:08:17.033Z,36.58
2017-07-22T09:09:17.032Z,37.54
2017-07-22T09:10:16.724Z,37.62
2017-07-22T09:11:17.028Z,38.49
2017-07-22T09:12:17.030Z,38.3
2017-07-22T09:13:17.031Z,38.77
2017-07-22T09:14:17.186Z,39.65
2017-07-22T09:15:17.035Z,39.65
2017-07-22T09:16:16.729Z,39.45
2017-07-22T09:17:17.033Z,39.94
2017-07-22T09:18:17.037Z,39.94
2017-07-22T09:19:17.136Z,39.84
2017-07-22T09:20:17.035Z,39.65
2017-07-22T09:21:17.035Z,39.65
2017-07-22T09:22:17.038Z,39.65
2017-07-22T09:23:17.034Z,39.55
2017-07-22T09:24:17.042Z,39.94
2017-07-22T09:25:17.039Z,39.84
2017-07-22T09:26:17.045Z,39.94
2017-07-22T09:27:17.192Z,40.13
2017-07-22T09:28:17.036Z,40.13
2017-07-22T09:29:17.039Z,39.94
2017-07-22T09:30:16.732Z,40.23
2017-07-22T09:31:17.042Z,40.6
2017-07-22T09:32:17.047Z,40.89
2017-07-22T09:33:17.041Z,41.28
2017-07-22T09:34:17.053Z,41.57
2017-07-22T09:35:17.040Z,41.48
2017-07-22T09:36:17.041Z,41.28
2017-07-22T09:37:17.045Z,41.86
2017-07-22T09:38:17.044Z,42.06
2017-07-22T09:39:17.046Z,42.55
2017-07-22T09:40:17.045Z,42.74
2017-07-22T09:41:17.047Z,42.74
2017-07-22T09:42:17.043Z,42.84
2017-07-22T09:43:17.045Z,42.35
2017-07-22T09:44:17.044Z,42.06
2017-07-22T09:45:17.048Z,42.35
2017-07-22T09:46:17.044Z,42.16
2017-07-22T09:47:16.739Z,41.96
2017-07-22T09:48:17.046Z,42.45
2017-07-22T09:49:17.047Z,42.06
2017-07-22T09:50:17.045Z,42.16
2017-07-22T09:51:17.048Z,42.35
2017-07-22T09:52:17.049Z,42.24
2017-07-22T09:53:16.892Z,42.91
2017-07-22T09:54:17.049Z,43.4
2017-07-22T09:55:16.742Z,43.3
2017-07-22T09:56:17.046Z,43.3
2017-07-22T09:57:17.153Z,43.01
2017-07-22T09:58:17.050Z,43.01
2017-07-22T09:59:16.741Z,43.11
2017-07-22T10:00:17.066Z,42.91
2017-07-22T10:01:17.050Z,42.82
2017-07-22T10:02:17.048Z,43.11
2017-07-22T10:03:17.053Z,42.82
2017-07-22T10:04:17.047Z,42.91
2017-07-22T10:05:16.741Z,42.11
2017-07-22T10:06:17.049Z,42.53
2017-07-22T10:07:17.149Z,42.91
2017-07-22T10:08:17.054Z,43.5
2017-07-22T10:09:17.055Z,43.3
2017-07-22T10:10:17.048Z,43.29
2017-07-22T10:11:17.049Z,43.67
2017-07-22T10:12:17.054Z,44.26
2017-07-22T10:13:17.054Z,43.67
2017-07-22T10:14:17.057Z,43.77
2017-07-22T10:15:17.052Z,44.06
2017-07-22T10:16:17.049Z,43.96
2017-07-22T10:17:16.845Z,44.16
2017-07-22T10:18:17.057Z,44.26
2017-07-22T10:19:17.053Z,44.45
2017-07-22T10:20:17.056Z,44.26
2017-07-22T10:21:16.747Z,44.26
2017-07-22T10:22:16.749Z,44.45
2017-07-22T10:23:16.747Z,44.35
2017-07-22T10:24:17.054Z,45.04
2017-07-22T10:25:17.063Z,45.04
2017-07-22T10:26:17.055Z,44.74
2017-07-22T10:27:17.056Z,45.04
2017-07-22T10:28:17.056Z,45.23
2017-07-22T10:29:17.055Z,45.14
2017-07-22T10:30:17.057Z,45.42
2017-07-22T10:31:17.056Z,45.04
2017-07-22T10:32:17.057Z,45.42
2017-07-22T10:33:17.056Z,44.26
2017-07-22T10:34:17.058Z,44.35
2017-07-22T10:35:17.059Z,44.35
2017-07-22T10:36:17.057Z,44.16
2017-07-22T10:37:17.055Z,44.35
2017-07-22T10:38:17.058Z,44.35
2017-07-22T10:39:17.055Z,43.77
2017-07-22T10:40:17.059Z,43.87
2017-07-22T10:41:17.058Z,43.96
2017-07-22T10:42:17.062Z,43.09
2017-07-22T10:43:17.059Z,43.38
2017-07-22T10:44:16.754Z,43.96
2017-07-22T10:45:17.062Z,43.96
2017-07-22T10:46:17.058Z,44.84
2017-07-22T10:47:16.753Z,45.14
2017-07-22T10:48:17.062Z,45.14
2017-07-22T10:49:17.064Z,44.74
2017-07-22T10:50:17.063Z,45.04
2017-07-22T10:51:17.064Z,45.04
2017-07-22T10:52:17.063Z,45.14
2017-07-22T10:53:17.059Z,44.35
2017-07-22T10:54:16.755Z,44.35
2017-07-22T10:55:17.065Z,44.35
2017-07-22T10:56:17.063Z,44.45
2017-07-22T10:57:17.064Z,45.01
2017-07-22T10:58:17.065Z,45.04
2017-07-22T10:59:17.062Z,44.94
2017-07-22T11:00:17.065Z,45.14
2017-07-22T11:01:17.063Z,44.84
2017-07-22T11:02:17.067Z,44.84
2017-07-22T11:03:17.064Z,45.04
2017-07-22T11:04:17.062Z,44.92
2017-07-22T11:05:17.066Z,45.11
2017-07-22T11:06:17.069Z,44.04
2017-07-22T11:07:17.067Z,43.96
2017-07-22T11:08:17.069Z,44.43
2017-07-22T11:09:17.076Z,44.33
2017-07-22T11:10:17.065Z,44.24
2017-07-22T11:11:17.067Z,44.24
2017-07-22T11:12:17.066Z,43.95
2017-07-22T11:13:17.066Z,43.95
2017-07-22T11:14:17.068Z,43.95
2017-07-22T11:15:17.070Z,43.07
2017-07-22T11:16:17.067Z,43.55
2017-07-22T11:17:17.067Z,43.95
2017-07-22T11:18:17.065Z,43.95
2017-07-22T11:19:17.069Z,43.55
2017-07-22T11:20:17.068Z,43.65
2017-07-22T11:21:17.068Z,43.36
2017-07-22T11:22:17.067Z,43.36
2017-07-22T11:23:17.071Z,43.26
2017-07-22T11:24:17.219Z,42.19
2017-07-22T11:25:17.066Z,42.29
2017-07-22T11:26:17.068Z,42.1
2017-07-22T11:27:17.073Z,42.49
2017-07-22T11:28:17.069Z,41.9
2017-07-22T11:29:17.068Z,41.13
2017-07-22T11:30:17.072Z,41.22
2017-07-22T11:31:17.069Z,41.42
2017-07-22T11:32:17.070Z,40.54
2017-07-22T11:33:17.069Z,40.64
2017-07-22T11:34:17.075Z,39.76
2017-07-22T11:35:17.069Z,39.67
2017-07-22T11:36:17.068Z,39.08
2017-07-22T11:37:17.216Z,38.31
2017-07-22T11:38:17.068Z,37.92
2017-07-22T11:39:17.071Z,37.82
2017-07-22T11:40:17.073Z,37.92
2017-07-22T11:41:17.073Z,37.92
2017-07-22T11:42:17.068Z,38.4
2017-07-22T11:43:17.068Z,38.79
2017-07-22T11:44:16.767Z,39.47
2017-07-22T11:45:17.091Z,39.86
2017-07-22T11:46:17.170Z,39.86
2017-07-22T11:47:17.069Z,39.78
2017-07-22T11:48:17.072Z,39.96
2017-07-22T11:49:16.764Z,40.25
2017-07-22T11:50:17.076Z,40.54
2017-07-22T11:51:17.070Z,41.03
2017-07-22T11:52:17.070Z,41.13
2017-07-22T11:53:17.078Z,40.93
2017-07-22T11:54:17.072Z,40.34
2017-07-22T11:55:17.171Z,40.06
2017-07-22T11:56:17.068Z,40.06
2017-07-22T11:57:17.073Z,40.15
2017-07-22T11:58:17.073Z,40.06
2017-07-22T11:59:17.105Z,40.15
2017-07-22T12:00:17.101Z,40.15
2017-07-22T12:01:16.791Z,40.15
2017-07-22T12:02:36.306Z,40.44
2017-07-22T12:03:17.104Z,41.03
2017-07-22T12:04:16.790Z,40.34
2017-07-22T12:05:17.102Z,40.54
2017-07-22T12:06:17.101Z,40.93
2017-07-22T12:07:17.105Z,41.22
2017-07-22T12:08:16.790Z,40.93
2017-07-22T12:09:16.782Z,40.73
2017-07-22T12:10:17.073Z,40.93
2017-07-22T12:11:17.074Z,40.83
2017-07-22T12:12:17.174Z,40.93
2017-07-22T12:13:17.079Z,41.51
2017-07-22T12:14:17.176Z,41.32
2017-07-22T12:15:17.077Z,41.51
2017-07-22T12:16:17.221Z,41.42
2017-07-22T12:17:17.072Z,41.51
2017-07-22T12:18:17.074Z,41.22
2017-07-22T12:19:17.075Z,40.93
2017-07-22T12:20:17.074Z,41.13
2017-07-22T12:21:17.071Z,41.2
2017-07-22T12:22:17.076Z,40.73
2017-07-22T12:23:17.079Z,41.13
2017-07-22T12:24:16.769Z,41.03
2017-07-22T12:25:17.073Z,40.83
2017-07-22T12:26:17.076Z,41.03
2017-07-22T12:27:17.075Z,41.13
2017-07-22T12:28:17.079Z,41.9
2017-07-22T12:29:16.771Z,42.19
2017-07-22T12:30:17.074Z,41.71
2017-07-22T12:31:17.077Z,41.9
2017-07-22T12:32:17.076Z,41.51
2017-07-22T12:33:17.078Z,41.03
2017-07-22T12:34:17.075Z,41.32
2017-07-22T12:35:17.075Z,40.93
2017-07-22T12:36:16.870Z,41.42
2017-07-22T12:37:17.077Z,41.22
2017-07-22T12:38:17.078Z,41.71
2017-07-22T12:39:17.079Z,41.8
2017-07-22T12:40:17.077Z,41.71
2017-07-22T12:41:17.078Z,41.42
2017-07-22T12:42:17.074Z,41.22
2017-07-22T12:43:17.077Z,41.61
2017-07-22T12:44:17.077Z,41.51
2017-07-22T12:45:17.178Z,41.22
2017-07-22T12:46:17.078Z,41.03
2017-07-22T12:47:17.078Z,41.22
2017-07-22T12:48:16.769Z,40.93
2017-07-22T12:49:16.767Z,41.13
2017-07-22T12:50:17.076Z,41.03
2017-07-22T12:51:17.075Z,41.03
2017-07-22T12:52:16.770Z,41.3
2017-07-22T12:53:16.769Z,41.13
2017-07-22T12:54:17.078Z,40.73